createdAt,value
2023-05-13T00:01:16.797Z,9.60
2023-05-13T00:03:44.257Z,9.80
2023-05-13T00:06:11.022Z,9.60
2023-05-13T00:08:37.741Z,9.88
2023-05-13T00:11:04.424Z,10.07
2023-05-13T00:13:31.729Z,10.00
2023-05-13T00:15:58.453Z,9.93
2023-05-13T00:18:25.768Z,10.27
2023-05-13T00:20:52.413Z,10.23
2023-05-13T00:23:19.075Z,9.27
2023-05-13T00:25:45.681Z,7.30
2023-05-13T00:28:14.842Z,7.13
2023-05-13T00:30:45.692Z,7.97
2023-05-13T00:33:12.672Z,9.45
2023-05-13T00:35:39.444Z,10.15
2023-05-13T00:38:06.852Z,10.05
2023-05-13T00:40:37.165Z,10.15
2023-05-13T00:43:03.801Z,9.25
2023-05-13T00:45:30.580Z,9.82
2023-05-13T00:47:58.074Z,8.18
2023-05-13T00:50:25.020Z,10.15
2023-05-13T00:52:51.809Z,10.45
2023-05-13T00:55:18.517Z,9.63
2023-05-13T00:57:45.154Z,10.07
2023-05-13T01:00:12.191Z,10.13
2023-05-13T01:03:05.840Z,10.10
2023-05-13T01:05:42.434Z,10.98
2023-05-13T01:08:23.255Z,10.32
2023-05-13T01:11:08.205Z,10.32
2023-05-13T01:13:39.724Z,10.43
2023-05-13T01:16:17.554Z,9.80
2023-05-13T01:19:05.986Z,9.93
2023-05-13T01:21:37.006Z,10.50
2023-05-13T01:24:03.769Z,9.98
2023-05-13T01:26:30.634Z,9.68
2023-05-13T01:28:57.302Z,9.63
2023-05-13T01:31:24.598Z,9.23
2023-05-13T01:33:51.748Z,8.82
2023-05-13T01:36:18.369Z,10.25
2023-05-13T01:38:45.518Z,9.85
2023-05-13T01:41:12.172Z,9.57
2023-05-13T01:43:38.840Z,10.52
2023-05-13T01:46:12.399Z,10.00
2023-05-13T01:48:39.006Z,9.32
2023-05-13T01:51:05.898Z,9.50
2023-05-13T01:53:32.459Z,9.90
2023-05-13T01:55:59.109Z,10.32
2023-05-13T01:58:25.717Z,10.65
2023-05-13T02:00:52.287Z,9.57
2023-05-13T02:03:19.282Z,10.00
2023-05-13T02:05:48.518Z,9.75
2023-05-13T02:08:15.224Z,9.77
2023-05-13T02:10:41.826Z,9.45
2023-05-13T02:13:08.505Z,9.25
2023-05-13T02:15:35.278Z,9.45
2023-05-13T02:18:01.993Z,7.93
2023-05-13T02:20:28.585Z,6.93
2023-05-13T02:22:55.157Z,7.90
2023-05-13T02:25:21.787Z,7.90
2023-05-13T02:27:48.380Z,7.80
2023-05-13T02:30:15.071Z,7.35
2023-05-13T02:32:43.704Z,7.10
2023-05-13T02:35:10.762Z,7.40
2023-05-13T02:37:37.375Z,8.70
2023-05-13T02:40:04.346Z,9.00
2023-05-13T02:42:30.990Z,9.13
2023-05-13T02:44:58.440Z,9.20
2023-05-13T02:47:25.225Z,9.75
2023-05-13T02:49:51.849Z,7.53
2023-05-13T02:52:18.516Z,7.35
2023-05-13T02:54:45.212Z,7.32
2023-05-13T02:57:11.851Z,7.45
2023-05-13T02:59:38.434Z,7.75
2023-05-13T03:02:05.293Z,7.13
2023-05-13T03:04:31.924Z,7.78
2023-05-13T03:06:58.547Z,8.82
2023-05-13T03:09:25.326Z,8.70
2023-05-13T03:11:51.975Z,8.30
2023-05-13T03:14:18.729Z,9.20
2023-05-13T03:16:45.461Z,8.60
2023-05-13T03:19:12.108Z,9.23
2023-05-13T03:21:38.997Z,8.10
2023-05-13T03:24:06.096Z,8.30
2023-05-13T03:26:32.647Z,8.40
2023-05-13T03:28:59.210Z,6.97
2023-05-13T03:31:25.994Z,8.55
2023-05-13T03:33:52.654Z,9.02
2023-05-13T03:36:19.229Z,8.50
2023-05-13T03:38:46.001Z,9.18
2023-05-13T03:41:12.730Z,8.27
2023-05-13T03:43:39.341Z,8.77
2023-05-13T03:46:06.048Z,8.70
2023-05-13T03:48:32.627Z,8.43
2023-05-13T03:50:59.237Z,8.73
2023-05-13T03:53:25.829Z,7.38
2023-05-13T03:55:52.428Z,8.25
2023-05-13T03:58:19.199Z,7.85
2023-05-13T04:00:47.051Z,8.57
2023-05-13T04:03:16.048Z,9.10
2023-05-13T04:05:43.650Z,9.13
2023-05-13T04:08:11.381Z,8.18
2023-05-13T04:10:38.184Z,9.02
2023-05-13T04:13:05.149Z,8.38
2023-05-13T04:15:31.749Z,8.75
2023-05-13T04:17:59.010Z,8.25
2023-05-13T04:20:25.642Z,7.57
2023-05-13T04:22:52.494Z,8.25
2023-05-13T04:25:19.113Z,9.27
2023-05-13T04:27:47.468Z,8.60
2023-05-13T04:30:14.250Z,9.25
2023-05-13T04:32:40.905Z,8.75
2023-05-13T04:35:08.313Z,8.55
2023-05-13T04:37:34.999Z,8.48
2023-05-13T04:40:01.703Z,9.18
2023-05-13T04:42:28.385Z,8.68
2023-05-13T04:44:55.138Z,8.75
2023-05-13T04:47:22.321Z,8.50
2023-05-13T04:49:48.921Z,9.23
2023-05-13T04:52:16.018Z,8.75
2023-05-13T04:54:42.690Z,8.77
2023-05-13T04:57:09.449Z,9.05
2023-05-13T04:59:36.318Z,7.78
2023-05-13T05:02:03.090Z,8.30
2023-05-13T05:04:29.739Z,8.32
2023-05-13T05:06:56.346Z,7.55
2023-05-13T05:09:22.956Z,8.10
2023-05-13T05:11:50.562Z,8.32
2023-05-13T05:14:17.458Z,8.32
2023-05-13T05:16:44.239Z,8.30
2023-05-13T05:19:10.842Z,6.95
2023-05-13T05:21:37.589Z,6.45
2023-05-13T05:24:05.149Z,6.53
2023-05-13T05:26:31.777Z,6.80
2023-05-13T05:28:58.457Z,6.53
2023-05-13T05:31:26.940Z,7.97
2023-05-13T05:33:53.706Z,8.10
2023-05-13T05:36:20.708Z,7.05
2023-05-13T05:38:47.378Z,7.18
2023-05-13T05:41:14.069Z,6.95
2023-05-13T05:43:40.719Z,7.57
2023-05-13T05:46:07.473Z,6.55
2023-05-13T05:48:34.890Z,8.38
2023-05-13T05:51:01.709Z,7.85
2023-05-13T05:53:28.367Z,6.55
2023-05-13T05:55:54.960Z,6.10
2023-05-13T05:58:21.744Z,6.80
2023-05-13T06:00:48.384Z,6.60
2023-05-13T06:03:15.326Z,8.00
2023-05-13T06:05:42.448Z,6.75
2023-05-13T06:08:09.032Z,8.93
2023-05-13T06:10:35.645Z,6.75
2023-05-13T06:13:02.303Z,6.43
2023-05-13T06:15:28.896Z,6.95
2023-05-13T06:17:55.978Z,7.03
2023-05-13T06:20:23.221Z,3.55
2023-05-13T06:22:50.128Z,7.30
2023-05-13T06:25:16.880Z,8.35
2023-05-13T06:27:43.458Z,8.20
2023-05-13T06:30:10.718Z,5.93
2023-05-13T06:32:38.185Z,8.75
2023-05-13T06:35:07.785Z,7.60
2023-05-13T06:37:34.542Z,6.55
2023-05-13T06:40:01.280Z,8.20
2023-05-13T06:42:27.833Z,7.72
2023-05-13T06:44:54.481Z,8.50
2023-05-13T06:47:21.833Z,5.45
2023-05-13T06:49:50.516Z,3.97
2023-05-13T06:52:17.089Z,4.60
2023-05-13T06:54:43.687Z,6.90
2023-05-13T06:57:10.300Z,9.48
2023-05-13T06:59:37.978Z,7.32
2023-05-13T07:02:04.902Z,3.35
2023-05-13T07:04:31.877Z,6.28
2023-05-13T07:06:58.452Z,8.30
2023-05-13T07:09:25.078Z,9.88
2023-05-13T07:11:52.079Z,4.40
2023-05-13T07:14:18.834Z,8.60
2023-05-13T07:16:45.635Z,6.57
2023-05-13T07:19:12.448Z,4.63
2023-05-13T07:21:39.159Z,7.30
2023-05-13T07:24:06.060Z,4.03
2023-05-13T07:26:32.699Z,4.10
2023-05-13T07:28:59.618Z,7.32
2023-05-13T07:31:26.573Z,3.58
2023-05-13T07:33:53.506Z,8.57
2023-05-13T07:36:20.183Z,3.50
2023-05-13T07:38:46.871Z,3.55
2023-05-13T07:41:13.502Z,3.50
2023-05-13T07:43:40.764Z,4.22
2023-05-13T07:46:07.438Z,3.60
2023-05-13T07:48:34.119Z,4.22
2023-05-13T07:51:01.337Z,6.13
2023-05-13T07:53:28.121Z,9.55
2023-05-13T07:55:54.839Z,7.32
2023-05-13T07:58:21.576Z,4.55
2023-05-13T08:00:49.435Z,5.90
2023-05-13T08:03:16.934Z,8.30
2023-05-13T08:05:43.700Z,6.55
2023-05-13T08:08:10.488Z,8.02
2023-05-13T08:10:37.079Z,11.13
2023-05-13T08:13:03.647Z,3.55
2023-05-13T08:15:30.421Z,5.88
2023-05-13T08:17:57.164Z,7.57
2023-05-13T08:20:29.478Z,8.27
2023-05-13T08:22:59.220Z,3.55
2023-05-13T08:25:25.929Z,4.25
2023-05-13T08:27:52.516Z,7.53
2023-05-13T08:30:19.181Z,9.38
2023-05-13T08:32:46.064Z,3.78
2023-05-13T08:35:12.762Z,5.00
2023-05-13T08:37:39.665Z,5.05
2023-05-13T08:40:07.016Z,5.07
2023-05-13T08:42:35.055Z,5.18
2023-05-13T08:45:07.771Z,10.30
2023-05-13T08:47:42.036Z,5.78
2023-05-13T08:50:09.616Z,7.57
2023-05-13T08:52:36.337Z,4.10
2023-05-13T08:55:03.856Z,4.82
2023-05-13T08:57:30.623Z,5.22
2023-05-13T08:59:57.204Z,6.18
2023-05-13T09:02:24.565Z,8.07
2023-05-13T09:04:54.694Z,5.05
2023-05-13T09:07:21.341Z,6.40
2023-05-13T09:09:48.059Z,7.95
2023-05-13T09:12:48.481Z,8.25
2023-05-13T09:15:17.724Z,7.20
2023-05-13T09:17:47.415Z,9.50
2023-05-13T09:20:15.685Z,8.30
2023-05-13T09:22:49.168Z,7.32
2023-05-13T09:25:17.685Z,5.43
2023-05-13T09:27:47.219Z,4.63
2023-05-13T09:30:14.222Z,9.77
2023-05-13T09:32:42.181Z,10.50
2023-05-13T09:35:16.710Z,9.27
2023-05-13T09:37:48.166Z,7.40
2023-05-13T09:40:18.329Z,9.55
2023-05-13T09:42:46.213Z,4.55
2023-05-13T09:45:14.540Z,6.32
2023-05-13T09:47:41.800Z,3.50
2023-05-13T09:50:10.390Z,7.68
2023-05-13T09:52:38.638Z,8.07
2023-05-13T09:55:09.146Z,5.45
2023-05-13T09:57:35.855Z,6.03
2023-05-13T10:00:05.906Z,5.45
2023-05-13T10:02:32.928Z,3.15
2023-05-13T10:04:59.925Z,3.50
2023-05-13T10:07:27.889Z,6.57
2023-05-13T10:10:00.665Z,3.85
2023-05-13T10:12:29.855Z,4.05
2023-05-13T10:14:57.048Z,5.10
2023-05-13T10:17:25.486Z,5.63
2023-05-13T10:19:54.584Z,6.72
2023-05-13T10:22:33.555Z,3.53
2023-05-13T10:25:01.853Z,3.15
2023-05-13T10:27:33.127Z,3.47
2023-05-13T10:30:03.779Z,3.55
2023-05-13T10:32:31.471Z,4.38
2023-05-13T10:35:12.916Z,4.00
2023-05-13T10:38:16.528Z,3.40
2023-05-13T10:41:09.303Z,5.07
2023-05-13T10:43:37.301Z,3.60
2023-05-13T10:46:11.308Z,3.60
2023-05-13T10:48:50.935Z,4.82
2023-05-13T10:51:22.380Z,3.90
2023-05-13T10:53:54.880Z,6.35
2023-05-13T10:56:26.823Z,3.33
2023-05-13T10:59:04.510Z,3.83
2023-05-13T11:01:43.554Z,4.32
2023-05-13T11:04:17.445Z,3.03
2023-05-13T11:06:46.675Z,4.72
2023-05-13T11:09:30.783Z,3.53
2023-05-13T11:11:59.604Z,3.30
2023-05-13T11:14:27.630Z,3.53
2023-05-13T11:17:00.257Z,3.83
2023-05-13T11:19:27.717Z,4.00
2023-05-13T11:22:18.276Z,3.35
2023-05-13T11:24:46.453Z,3.92
2023-05-13T11:27:18.413Z,4.35
2023-05-13T11:29:50.676Z,3.58
2023-05-13T11:32:53.692Z,3.30
2023-05-13T11:35:27.406Z,3.53
2023-05-13T11:38:00.125Z,4.53
2023-05-13T11:40:32.178Z,3.05
2023-05-13T11:42:59.872Z,4.07
2023-05-13T11:45:27.963Z,3.13
2023-05-13T11:47:55.934Z,4.13
2023-05-13T11:50:23.983Z,4.30
2023-05-13T11:53:01.363Z,2.90
2023-05-13T11:55:29.672Z,3.30
2023-05-13T11:57:57.165Z,4.15
2023-05-13T12:00:31.630Z,3.78
2023-05-13T12:02:59.359Z,5.45
2023-05-13T12:05:27.246Z,4.20
2023-05-13T12:07:58.028Z,3.55
2023-05-13T12:10:25.931Z,3.30
2023-05-13T12:12:52.842Z,3.95
2023-05-13T12:15:21.390Z,3.65
2023-05-13T12:17:49.335Z,3.50
2023-05-13T12:20:23.766Z,3.42
2023-05-13T12:22:53.357Z,3.80
2023-05-13T12:25:39.755Z,3.70
2023-05-13T12:28:22.228Z,4.25
2023-05-13T12:30:59.462Z,3.40
2023-05-13T12:33:49.203Z,3.25
2023-05-13T12:36:21.610Z,3.00
2023-05-13T12:39:01.436Z,2.92
2023-05-13T12:41:38.634Z,3.20
2023-05-13T12:44:09.681Z,2.92
2023-05-13T12:46:37.292Z,3.33
2023-05-13T12:49:05.289Z,2.83
2023-05-13T12:51:35.201Z,3.58
2023-05-13T12:54:01.824Z,2.70
2023-05-13T12:56:28.684Z,3.38
2023-05-13T12:58:55.646Z,3.22
2023-05-13T13:01:22.502Z,3.28
2023-05-13T13:03:49.412Z,4.00
2023-05-13T13:06:16.478Z,4.43
2023-05-13T13:08:43.153Z,3.88
2023-05-13T13:11:10.283Z,3.13
2023-05-13T13:13:39.194Z,4.22
2023-05-13T13:16:06.512Z,3.30
2023-05-13T13:18:33.253Z,3.10
2023-05-13T13:20:59.912Z,3.55
2023-05-13T13:23:26.639Z,4.50
2023-05-13T13:25:53.325Z,2.78
2023-05-13T13:28:20.025Z,3.00
2023-05-13T13:30:47.265Z,3.30
2023-05-13T13:33:16.089Z,3.15
2023-05-13T13:35:44.290Z,4.25
2023-05-13T13:38:11.399Z,3.10
2023-05-13T13:40:38.137Z,3.30
2023-05-13T13:43:06.119Z,3.97
2023-05-13T13:45:33.104Z,3.88
2023-05-13T13:48:00.001Z,3.42
2023-05-13T13:50:27.148Z,3.90
2023-05-13T13:52:53.853Z,3.88
2023-05-13T13:55:21.655Z,4.38
2023-05-13T13:57:48.455Z,3.45
2023-05-13T14:00:16.072Z,3.17
2023-05-13T14:02:43.931Z,3.00
2023-05-13T14:05:12.715Z,3.78
2023-05-13T14:07:39.897Z,4.05
2023-05-13T14:10:07.680Z,4.43
2023-05-13T14:12:36.094Z,2.55
2023-05-13T14:15:03.271Z,3.03
2023-05-13T14:17:30.110Z,3.70
2023-05-13T14:19:56.821Z,3.40
2023-05-13T14:22:24.206Z,2.83
2023-05-13T14:24:52.230Z,4.10
2023-05-13T14:27:19.757Z,3.00
2023-05-13T14:29:47.591Z,2.83
2023-05-13T14:32:14.669Z,2.40
2023-05-13T14:34:41.790Z,3.70
2023-05-13T14:37:08.582Z,3.00
2023-05-13T14:39:35.318Z,3.30
2023-05-13T14:42:02.013Z,3.00
2023-05-13T14:44:28.664Z,3.00
2023-05-13T14:46:55.977Z,2.63
2023-05-13T14:49:22.646Z,2.33
2023-05-13T14:51:49.289Z,3.05
2023-05-13T14:54:17.521Z,3.38
2023-05-13T14:56:44.367Z,3.80
2023-05-13T14:59:11.223Z,2.67
2023-05-13T15:01:38.459Z,2.78
2023-05-13T15:04:05.340Z,3.22
2023-05-13T15:06:32.048Z,4.75
2023-05-13T15:08:58.775Z,2.75
2023-05-13T15:11:28.144Z,4.20
2023-05-13T15:13:55.033Z,4.05
2023-05-13T15:16:21.914Z,3.80
2023-05-13T15:18:50.005Z,3.50
2023-05-13T15:21:17.091Z,4.60
2023-05-13T15:23:43.704Z,3.80
2023-05-13T15:26:10.455Z,4.57
2023-05-13T15:28:37.701Z,3.80
2023-05-13T15:31:05.178Z,3.10
2023-05-13T15:33:32.505Z,4.32
2023-05-13T15:35:59.594Z,5.38
2023-05-13T15:38:26.624Z,5.80
2023-05-13T15:40:53.539Z,5.90
2023-05-13T15:43:20.265Z,6.30
2023-05-13T15:45:47.133Z,6.72
2023-05-13T15:48:13.855Z,6.22
2023-05-13T15:50:40.790Z,5.68
2023-05-13T15:53:07.445Z,5.82
2023-05-13T15:55:34.262Z,2.63
2023-05-13T15:58:00.873Z,4.50
2023-05-13T16:00:27.474Z,2.80
2023-05-13T16:02:54.233Z,4.07
2023-05-13T16:05:20.922Z,2.67
2023-05-13T16:07:47.568Z,3.00
2023-05-13T16:10:15.228Z,2.70
2023-05-13T16:12:42.858Z,3.00
2023-05-13T16:15:10.892Z,2.05
2023-05-13T16:17:37.751Z,3.60
2023-05-13T16:20:05.024Z,3.03
2023-05-13T16:22:34.490Z,2.92
2023-05-13T16:25:11.405Z,3.67
2023-05-13T16:27:39.196Z,3.70
2023-05-13T16:30:07.438Z,3.83
2023-05-13T16:32:34.883Z,3.90
2023-05-13T16:35:02.093Z,3.60
2023-05-13T16:37:29.099Z,4.00
2023-05-13T16:39:55.733Z,3.88
2023-05-13T16:42:23.018Z,4.85
2023-05-13T16:44:49.643Z,5.38
2023-05-13T16:47:16.458Z,5.90
2023-05-13T16:49:43.152Z,4.90
2023-05-13T16:52:09.840Z,5.22
2023-05-13T16:54:36.511Z,4.97
2023-05-13T16:57:03.252Z,5.97
2023-05-13T16:59:29.910Z,6.10
2023-05-13T17:01:56.558Z,5.70
2023-05-13T17:04:23.158Z,5.55
2023-05-13T17:06:49.817Z,5.22
2023-05-13T17:09:16.525Z,5.65
2023-05-13T17:11:43.187Z,5.50
2023-05-13T17:14:09.811Z,5.53
2023-05-13T17:16:36.521Z,5.85
2023-05-13T17:19:03.193Z,5.60
2023-05-13T17:21:30.082Z,5.47
2023-05-13T17:23:56.646Z,5.45
2023-05-13T17:26:23.262Z,6.10
2023-05-13T17:28:49.908Z,5.18
2023-05-13T17:31:16.734Z,5.45
2023-05-13T17:33:43.716Z,4.93
2023-05-13T17:36:10.910Z,4.93
2023-05-13T17:38:38.022Z,4.43
2023-05-13T17:41:05.007Z,6.28
2023-05-13T17:43:31.699Z,5.15
2023-05-13T17:45:58.710Z,4.72
2023-05-13T17:48:26.581Z,6.00
2023-05-13T17:50:53.270Z,4.90
2023-05-13T17:53:20.597Z,4.85
2023-05-13T17:55:48.547Z,4.90
2023-05-13T17:58:16.165Z,4.82
2023-05-13T18:00:43.054Z,4.90
2023-05-13T18:03:09.688Z,4.30
2023-05-13T18:05:36.475Z,5.00
2023-05-13T18:08:03.166Z,4.60
2023-05-13T18:10:29.879Z,5.32
2023-05-13T18:12:56.517Z,4.68
2023-05-13T18:15:23.263Z,5.45
2023-05-13T18:17:50.576Z,5.15
2023-05-13T18:20:18.542Z,5.07
2023-05-13T18:22:45.492Z,5.18
2023-05-13T18:25:12.167Z,5.90
2023-05-13T18:27:38.785Z,5.70
2023-05-13T18:30:06.814Z,5.70
2023-05-13T18:32:33.426Z,6.68
2023-05-13T18:35:00.137Z,6.10
2023-05-13T18:37:26.777Z,5.72
2023-05-13T18:39:53.425Z,5.85
2023-05-13T18:42:20.029Z,5.78
2023-05-13T18:44:46.652Z,5.00
2023-05-13T18:47:13.262Z,4.82
2023-05-13T18:49:39.894Z,5.30
2023-05-13T18:52:06.737Z,5.30
2023-05-13T18:54:33.376Z,3.85
2023-05-13T18:57:00.671Z,4.85
2023-05-13T18:59:27.351Z,5.03
2023-05-13T19:01:54.130Z,5.22
2023-05-13T19:04:21.213Z,5.53
2023-05-13T19:06:48.043Z,5.80
2023-05-13T19:09:14.620Z,5.75
2023-05-13T19:11:41.264Z,6.35
2023-05-13T19:14:07.861Z,6.38
2023-05-13T19:16:34.584Z,6.22
2023-05-13T19:19:01.232Z,5.95
2023-05-13T19:21:27.883Z,6.25
2023-05-13T19:23:54.480Z,6.60
2023-05-13T19:26:21.420Z,7.13
2023-05-13T19:28:48.678Z,6.57
2023-05-13T19:31:15.416Z,6.32
2023-05-13T19:33:43.461Z,6.22
2023-05-13T19:36:11.273Z,6.55
2023-05-13T19:38:37.871Z,6.10
2023-05-13T19:41:04.644Z,6.35
2023-05-13T19:43:31.234Z,6.50
2023-05-13T19:45:57.958Z,6.30
2023-05-13T19:48:24.614Z,6.80
2023-05-13T19:50:53.343Z,7.03
2023-05-13T19:53:23.590Z,7.13
2023-05-13T19:55:50.485Z,8.38
2023-05-13T19:58:17.612Z,7.50
2023-05-13T20:00:44.255Z,7.75
2023-05-13T20:03:11.238Z,8.30
2023-05-13T20:05:39.713Z,7.90
2023-05-13T20:08:06.676Z,9.00
2023-05-13T20:10:36.515Z,8.00
2023-05-13T20:13:04.693Z,7.63
2023-05-13T20:15:32.060Z,7.70
2023-05-13T20:17:58.866Z,7.68
2023-05-13T20:20:25.685Z,7.35
2023-05-13T20:22:52.384Z,7.10
2023-05-13T20:25:19.042Z,6.88
2023-05-13T20:27:45.660Z,7.55
2023-05-13T20:30:12.999Z,6.05
2023-05-13T20:32:39.733Z,7.20
2023-05-13T20:35:08.566Z,7.45
2023-05-13T20:37:35.474Z,7.50
2023-05-13T20:40:02.336Z,6.70
2023-05-13T20:42:28.947Z,7.78
2023-05-13T20:44:55.796Z,7.55
2023-05-13T20:47:22.406Z,6.63
2023-05-13T20:49:49.016Z,7.75
2023-05-13T20:52:15.976Z,9.02
2023-05-13T20:54:42.586Z,9.80
2023-05-13T20:57:09.518Z,9.57
2023-05-13T20:59:36.106Z,8.35
2023-05-13T21:02:02.827Z,9.38
2023-05-13T21:04:29.496Z,8.43
2023-05-13T21:06:57.268Z,9.35
2023-05-13T21:09:23.982Z,8.40
2023-05-13T21:11:50.692Z,7.75
2023-05-13T21:14:17.256Z,7.20
2023-05-13T21:16:43.892Z,7.05
2023-05-13T21:19:19.789Z,7.32
2023-05-13T21:21:46.405Z,6.40
2023-05-13T21:24:14.672Z,7.03
2023-05-13T21:26:41.333Z,6.63
2023-05-13T21:29:07.949Z,7.07
2023-05-13T21:31:34.583Z,7.47
2023-05-13T21:34:01.194Z,7.68
2023-05-13T21:36:27.801Z,6.93
2023-05-13T21:38:54.360Z,7.78
2023-05-13T21:41:21.926Z,8.75
2023-05-13T21:43:48.652Z,9.13
2023-05-13T21:46:15.356Z,7.88
2023-05-13T21:48:42.021Z,7.72
2023-05-13T21:51:08.709Z,8.48
2023-05-13T21:53:35.398Z,8.90
2023-05-13T21:56:02.922Z,8.35
2023-05-13T21:58:29.597Z,8.70
2023-05-13T22:00:56.425Z,8.38
2023-05-13T22:03:23.097Z,8.60
2023-05-13T22:05:49.684Z,8.48
2023-05-13T22:08:16.285Z,8.20
2023-05-13T22:10:42.948Z,8.60
2023-05-13T22:13:09.567Z,8.15
2023-05-13T22:15:36.175Z,8.27
2023-05-13T22:18:02.938Z,8.27
2023-05-13T22:20:29.574Z,8.32
2023-05-13T22:22:56.170Z,8.32
2023-05-13T22:25:22.787Z,6.70
2023-05-13T22:27:51.585Z,8.00
2023-05-13T22:30:18.497Z,7.32
2023-05-13T22:32:45.297Z,7.25
2023-05-13T22:35:11.981Z,7.20
2023-05-13T22:37:38.657Z,7.32
2023-05-13T22:40:06.385Z,6.97
2023-05-13T22:42:33.001Z,7.18
2023-05-13T22:44:59.569Z,7.85
2023-05-13T22:47:26.227Z,7.88
2023-05-13T22:49:52.881Z,8.25
2023-05-13T22:52:19.529Z,8.63
2023-05-13T22:54:46.126Z,8.50
2023-05-13T22:57:12.757Z,8.02
2023-05-13T22:59:39.388Z,8.55
2023-05-13T23:02:05.997Z,7.40
2023-05-13T23:04:32.884Z,7.78
2023-05-13T23:06:59.478Z,8.50
2023-05-13T23:09:26.319Z,7.97
2023-05-13T23:11:52.999Z,8.20
2023-05-13T23:14:19.563Z,8.63
2023-05-13T23:16:46.247Z,8.05
2023-05-13T23:19:13.019Z,7.65
2023-05-13T23:21:39.659Z,8.05
2023-05-13T23:24:06.350Z,7.45
2023-05-13T23:26:33.071Z,8.60
2023-05-13T23:28:59.695Z,8.30
2023-05-13T23:31:27.307Z,8.23
2023-05-13T23:33:53.967Z,7.10
2023-05-13T23:36:20.546Z,7.43
2023-05-13T23:38:47.126Z,8.25
2023-05-13T23:41:13.737Z,8.73
2023-05-13T23:43:40.442Z,7.97
2023-05-13T23:46:07.106Z,7.78
2023-05-13T23:48:33.756Z,9.00
2023-05-13T23:51:00.410Z,9.52
2023-05-13T23:53:27.107Z,7.68
2023-05-13T23:55:53.675Z,9.13
2023-05-13T23:58:20.354Z,8.55
